Time,TemperatureF,DewpointF,PressureIn,WindDirection,WindDirectionDegrees,WindSpeedMPH,WindSpeedGustMPH,Humidity,HourlyPrecipIn,Conditions,Clouds,dailyrainin,SoftwareType,DateUTC
2013-07-13 00:00:00,70.2,66.1,30.13,NE,45,6.0,8.0,87,0.00,,,0.00,VWS V13.01,2013-07-13 05:00:00,
2013-07-13 00:02:00,66.1,53.1,30.11,NNE,30,3.2,3.4,63,0.00,,,0.00,VWS V13.01,2013-07-13 05:02:00,
2013-07-13 00:07:00,66.1,53.2,30.11,NNE,30,3.0,3.6,63,0.00,,,0.00,VWS V13.01,2013-07-13 05:07:00,
2013-07-13 00:12:00,65.5,53.2,30.11,NE,39,2.7,3.2,64,0.00,,,0.00,VWS V13.01,2013-07-13 05:12:00,
2013-07-13 00:17:00,65.2,53.7,30.11,NE,45,3.2,3.3,66,0.00,,,0.00,VWS V13.01,2013-07-13 05:17:00,
2013-07-13 00:22:00,65.0,54.3,30.11,NE,49,2.9,3.4,68,0.00,,,0.00,VWS V13.01,2013-07-13 05:22:00,
2013-07-13 00:27:00,64.5,54.9,30.10,NE,44,3.5,4.8,71,0.00,,,0.00,VWS V13.01,2013-07-13 05:27:00,
2013-07-13 00:32:00,64.4,56.0,30.10,ENE,60,4.2,5.7,74,0.00,,,0.00,VWS V13.01,2013-07-13 05:32:00,
2013-07-13 00:37:00,64.7,56.1,30.10,NE,44,4.2,6.0,74,0.00,,,0.00,VWS V13.01,2013-07-13 05:37:00,
2013-07-13 00:42:00,64.3,56.1,30.10,NE,51,4.2,5.2,75,0.00,,,0.00,VWS V13.01,2013-07-13 05:42:00,
2013-07-13 00:47:00,64.1,56.8,30.11,NE,48,4.7,5.2,77,0.00,,,0.00,VWS V13.01,2013-07-13 05:47:00,
2013-07-13 00:52:00,63.9,57.2,30.11,NNE,30,2.4,2.7,79,0.00,,,0.00,VWS V13.01,2013-07-13 05:52:00,
2013-07-13 00:57:00,63.7,57.5,30.11,ENE,58,2.1,2.7,80,0.00,,,0.00,VWS V13.01,2013-07-13 05:57:00,
2013-07-13 01:02:00,63.7,57.6,30.11,NE,55,2.1,4.0,80,0.00,,,0.00,VWS V13.01,2013-07-13 06:02:00,
2013-07-13 01:07:00,63.9,58.2,30.10,NE,56,2.5,2.7,82,0.00,,,0.00,VWS V13.01,2013-07-13 06:07:00,
2013-07-13 01:12:00,63.5,58.4,30.10,ENE,60,1.8,2.1,84,0.00,,,0.00,VWS V13.01,2013-07-13 06:12:00,
2013-07-13 01:17:00,63.3,58.5,30.10,East,86,2.2,2.6,84,0.00,,,0.00,VWS V13.01,2013-07-13 06:17:00,
2013-07-13 01:22:00,63.5,59.0,30.10,NE,44,2.9,3.2,85,0.00,,,0.00,VWS V13.01,2013-07-13 06:22:00,
2013-07-13 01:27:00,63.3,59.0,30.10,ENE,60,1.6,2.3,86,0.00,,,0.00,VWS V13.01,2013-07-13 06:27:00,
2013-07-13 01:32:00,63.3,59.2,30.10,ENE,65,1.6,2.3,86,0.00,,,0.00,VWS V13.01,2013-07-13 06:32:00,
2013-07-13 01:37:00,63.2,59.0,30.11,NE,55,1.9,1.9,86,0.00,,,0.00,VWS V13.01,2013-07-13 06:37:00,
2013-07-13 01:42:00,63.3,59.2,30.11,NE,45,1.7,1.7,86,0.00,,,0.00,VWS V13.01,2013-07-13 06:42:00,
2013-07-13 01:47:00,63.4,59.4,30.11,NE,44,1.7,1.9,87,0.00,,,0.00,VWS V13.01,2013-07-13 06:47:00,
2013-07-13 01:52:00,63.4,59.6,30.11,NE,34,1.4,1.4,87,0.00,,,0.00,VWS V13.01,2013-07-13 06:52:00,
2013-07-13 01:57:00,63.5,59.9,30.12,NE,42,0.9,1.0,88,0.00,,,0.00,VWS V13.01,2013-07-13 06:57:00,
2013-07-13 02:02:00,63.4,59.7,30.12,NE,37,2.1,2.1,88,0.00,,,0.00,VWS V13.01,2013-07-13 07:02:00,
2013-07-13 02:06:00,63.5,59.9,30.12,NE,38,2.1,2.1,88,0.00,,,0.00,VWS V13.01,2013-07-13 07:06:00,
2013-07-13 02:12:00,63.7,60.0,30.12,NNE,27,1.9,2.0,88,0.00,,,0.00,VWS V13.01,2013-07-13 07:12:00,
2013-07-13 02:17:00,63.6,60.0,30.12,NNE,17,1.7,2.1,88,0.00,,,0.00,VWS V13.01,2013-07-13 07:17:00,
2013-07-13 02:22:00,63.7,60.3,30.13,NNE,32,1.1,2.1,89,0.00,,,0.00,VWS V13.01,2013-07-13 07:22:00,
2013-07-13 02:27:00,63.7,60.3,30.13,NNE,15,2.2,2.2,89,0.00,,,0.00,VWS V13.01,2013-07-13 07:27:00,
2013-07-13 02:31:00,63.6,60.5,30.12,NNE,30,3.2,3.3,90,0.00,,,0.00,VWS V13.01,2013-07-13 07:31:00,
2013-07-13 02:36:00,63.4,60.4,30.12,NNE,32,2.8,3.0,90,0.00,,,0.00,VWS V13.01,2013-07-13 07:36:00,
2013-07-13 02:41:00,63.1,60.2,30.13,NNE,31,3.0,3.1,90,0.00,,,0.00,VWS V13.01,2013-07-13 07:41:00,
2013-07-13 02:46:00,63.1,60.3,30.13,North,7,2.4,2.6,91,0.00,,,0.00,VWS V13.01,2013-07-13 07:46:00,
2013-07-13 02:51:00,63.0,60.3,30.13,North,11,2.4,2.6,91,0.00,,,0.00,VWS V13.01,2013-07-13 07:51:00,
2013-07-13 02:56:00,62.8,60.7,30.13,NNE,25,2.5,2.9,93,0.00,,,0.00,VWS V13.01,2013-07-13 07:56:00,
2013-07-13 03:01:00,62.8,60.7,30.13,NNE,24,2.8,3.1,93,0.00,,,0.00,VWS V13.01,2013-07-13 08:01:00,
2013-07-13 03:06:00,62.9,61.0,30.13,NNE,20,2.0,2.2,93,0.00,,,0.00,VWS V13.01,2013-07-13 08:06:00,
2013-07-13 03:11:00,62.9,61.0,30.13,NNE,17,2.0,2.5,94,0.00,,,0.00,VWS V13.01,2013-07-13 08:11:00,
2013-07-13 03:16:00,63.2,61.3,30.14,NNE,27,2.7,3.0,94,0.00,,,0.00,VWS V13.01,2013-07-13 08:16:00,
2013-07-13 03:21:00,63.2,61.3,30.14,NNE,28,2.7,2.7,94,0.00,,,0.00,VWS V13.01,2013-07-13 08:21:00,
2013-07-13 03:26:00,63.1,61.3,30.13,NNE,13,1.8,2.0,94,0.00,,,0.00,VWS V13.01,2013-07-13 08:26:00,
2013-07-13 03:31:00,63.1,61.3,30.14,NE,34,1.4,2.1,94,0.00,,,0.00,VWS V13.01,2013-07-13 08:31:00,
2013-07-13 03:36:00,63.4,61.6,30.14,NE,46,1.2,1.5,94,0.00,,,0.00,VWS V13.01,2013-07-13 08:36:00,
2013-07-13 03:41:00,63.5,61.6,30.14,NNE,32,1.6,1.8,94,0.00,,,0.00,VWS V13.01,2013-07-13 08:41:00,
2013-07-13 03:46:00,63.3,61.4,30.13,ENE,60,1.4,2.0,94,0.00,,,0.00,VWS V13.01,2013-07-13 08:46:00,
2013-07-13 03:51:00,63.3,61.4,30.13,NE,49,0.0,0.0,94,0.00,,,0.00,VWS V13.01,2013-07-13 08:51:00,
2013-07-13 03:56:00,63.1,61.2,30.13,NE,49,0.0,0.0,94,0.00,,,0.00,VWS V13.01,2013-07-13 08:56:00,
2013-07-13 04:01:00,62.9,61.1,30.13,NE,49,0.0,0.0,94,0.00,,,0.00,VWS V13.01,2013-07-13 09:01:00,
2013-07-13 04:06:00,62.8,61.0,30.13,NE,49,0.0,0.0,94,0.00,,,0.00,VWS V13.01,2013-07-13 09:06:00,
2013-07-13 04:11:00,62.3,60.9,30.13,NE,49,0.0,0.0,95,0.00,,,0.00,VWS V13.01,2013-07-13 09:11:00,
2013-07-13 04:16:00,61.8,60.6,30.13,NE,49,0.0,0.0,96,0.00,,,0.00,VWS V13.01,2013-07-13 09:16:00,
2013-07-13 04:21:00,62.0,60.8,30.12,ENE,58,2.2,2.5,96,0.00,,,0.00,VWS V13.01,2013-07-13 09:21:00,
2013-07-13 04:26:00,61.5,60.5,30.12,ENE,60,2.9,4.0,97,0.00,,,0.00,VWS V13.01,2013-07-13 09:26:00,
2013-07-13 04:31:00,61.4,60.7,30.12,ENE,60,1.2,1.7,98,0.00,,,0.00,VWS V13.01,2013-07-13 09:31:00,
2013-07-13 04:36:00,60.9,60.2,30.12,ENE,60,2.2,3.8,98,0.00,,,0.00,VWS V13.01,2013-07-13 09:36:00,
2013-07-13 04:41:00,60.4,59.8,30.12,NE,55,3.0,3.4,98,0.00,,,0.00,VWS V13.01,2013-07-13 09:41:00,
2013-07-13 04:46:00,60.3,60.0,30.12,NE,49,2.8,3.0,99,0.00,,,0.00,VWS V13.01,2013-07-13 09:46:00,
2013-07-13 04:51:00,60.3,60.0,30.13,NE,42,2.6,3.0,99,0.00,,,0.00,VWS V13.01,2013-07-13 09:51:00,
2013-07-13 04:56:00,60.3,59.9,30.13,NE,48,2.9,3.9,99,0.00,,,0.00,VWS V13.01,2013-07-13 09:56:00,
2013-07-13 05:01:00,60.5,60.2,30.13,NNE,25,1.1,1.6,99,0.00,,,0.00,VWS V13.01,2013-07-13 10:01:00,
2013-07-13 05:06:00,60.2,59.9,30.13,ENE,62,2.1,2.5,99,0.00,,,0.00,VWS V13.01,2013-07-13 10:06:00,
2013-07-13 05:11:00,60.3,60.0,30.13,NE,49,2.9,3.4,99,0.00,,,0.00,VWS V13.01,2013-07-13 10:11:00,
2013-07-13 05:16:00,60.2,60.0,30.13,ENE,58,3.1,3.2,99,0.00,,,0.00,VWS V13.01,2013-07-13 10:16:00,
2013-07-13 05:21:00,60.2,60.0,30.13,NNE,25,2.3,2.6,99,0.00,,,0.00,VWS V13.01,2013-07-13 10:21:00,
2013-07-13 05:26:00,60.1,59.9,30.13,NE,34,2.7,2.8,99,0.00,,,0.00,VWS V13.01,2013-07-13 10:26:00,
2013-07-13 05:31:00,60.6,60.4,30.13,NNE,30,3.2,3.6,99,0.00,,,0.00,VWS V13.01,2013-07-13 10:31:00,
2013-07-13 05:36:00,60.1,59.9,30.13,ENE,58,2.7,2.7,99,0.00,,,0.00,VWS V13.01,2013-07-13 10:36:00,
2013-07-13 05:41:00,60.3,60.1,30.13,NE,46,2.4,2.4,99,0.00,,,0.00,VWS V13.01,2013-07-13 10:41:00,
2013-07-13 05:46:00,60.4,60.2,30.13,NE,37,1.6,2.4,99,0.00,,,0.00,VWS V13.01,2013-07-13 10:46:00,
2013-07-13 05:51:00,60.4,60.2,30.13,NNE,13,1.7,3.1,99,0.00,,,0.00,VWS V13.01,2013-07-13 10:51:00,
2013-07-13 05:56:00,60.4,60.2,30.13,NE,42,1.2,1.6,99,0.00,,,0.00,VWS V13.01,2013-07-13 10:56:00,
2013-07-13 06:01:00,60.9,60.6,30.12,NNE,31,1.2,1.7,99,0.00,,,0.00,VWS V13.01,2013-07-13 11:01:00,
2013-07-13 06:06:00,61.2,60.9,30.12,NNE,28,1.8,2.2,99,0.00,,,0.00,VWS V13.01,2013-07-13 11:06:00,
2013-07-13 06:11:00,61.4,60.9,30.12,NNE,30,2.7,3.0,98,0.00,,,0.00,VWS V13.01,2013-07-13 11:11:00,
2013-07-13 06:16:00,61.6,61.0,30.13,NNE,30,2.5,3.0,98,0.00,,,0.00,VWS V13.01,2013-07-13 11:16:00,
2013-07-13 06:21:00,62.1,61.4,30.13,NE,38,2.7,2.7,98,0.00,,,0.00,VWS V13.01,2013-07-13 11:21:00,
2013-07-13 06:26:00,62.5,61.7,30.13,NNE,13,2.9,3.1,97,0.00,,,0.00,VWS V13.01,2013-07-13 11:26:00,
2013-07-13 06:31:00,63.2,62.3,30.13,NE,55,2.3,2.9,97,0.00,,,0.00,VWS V13.01,2013-07-13 11:31:00,
2013-07-13 06:36:00,63.6,62.5,30.14,North,7,3.0,3.0,96,0.00,,,0.00,VWS V13.01,2013-07-13 11:36:00,
2013-07-13 06:41:00,63.7,62.5,30.14,NNE,25,2.8,2.8,96,0.00,,,0.00,VWS V13.01,2013-07-13 11:41:00,
2013-07-13 06:46:00,64.2,63.0,30.14,NE,35,1.5,2.4,96,0.00,,,0.00,VWS V13.01,2013-07-13 11:46:00,
2013-07-13 06:51:00,64.7,63.4,30.14,NNE,18,1.9,2.1,95,0.00,,,0.00,VWS V13.01,2013-07-13 11:51:00,
2013-07-13 06:56:00,65.3,63.8,30.14,NE,41,2.1,2.1,95,0.00,,,0.00,VWS V13.01,2013-07-13 11:56:00,
2013-07-13 07:01:00,65.6,64.0,30.14,NE,48,2.8,2.9,94,0.00,,,0.00,VWS V13.01,2013-07-13 12:01:00,
2013-07-13 07:06:00,65.5,63.8,30.14,ENE,58,2.6,3.4,94,0.00,,,0.00,VWS V13.01,2013-07-13 12:06:00,
2013-07-13 07:11:00,65.7,64.1,30.14,ENE,69,2.1,3.1,95,0.00,,,0.00,VWS V13.01,2013-07-13 12:11:00,
2013-07-13 07:16:00,65.6,64.1,30.14,ENE,60,2.1,3.7,95,0.00,,,0.00,VWS V13.01,2013-07-13 12:16:00,
2013-07-13 07:21:00,65.8,64.3,30.15,ENE,60,2.7,3.4,95,0.00,,,0.00,VWS V13.01,2013-07-13 12:21:00,
2013-07-13 07:26:00,65.4,63.9,30.15,ENE,62,3.2,3.4,95,0.00,,,0.00,VWS V13.01,2013-07-13 12:26:00,
2013-07-13 07:31:00,65.7,64.4,30.15,NNE,31,1.2,1.8,96,0.00,,,0.00,VWS V13.01,2013-07-13 12:31:00,
2013-07-13 07:36:00,66.0,64.6,30.16,NE,42,2.5,3.5,95,0.00,,,0.00,VWS V13.01,2013-07-13 12:36:00,
2013-07-13 07:41:00,66.8,65.2,30.16,NE,44,0.7,1.3,95,0.00,,,0.00,VWS V13.01,2013-07-13 12:41:00,
2013-07-13 07:46:00,67.0,64.8,30.16,NNE,27,2.5,2.5,93,0.00,,,0.00,VWS V13.01,2013-07-13 12:46:00,
2013-07-13 07:51:00,67.3,64.5,30.16,ENE,58,3.6,4.2,91,0.00,,,0.00,VWS V13.01,2013-07-13 12:51:00,
2013-07-13 07:56:00,68.0,65.2,30.15,NE,55,1.9,2.7,91,0.00,,,0.00,VWS V13.01,2013-07-13 12:56:00,
2013-07-13 08:01:00,68.0,65.2,30.15,ENE,62,3.3,3.4,91,0.00,,,0.00,VWS V13.01,2013-07-13 13:01:00,
2013-07-13 08:06:00,68.8,65.9,30.15,East,80,3.9,3.9,90,0.00,,,0.00,VWS V13.01,2013-07-13 13:06:00,
2013-07-13 08:11:00,69.1,66.2,30.15,ENE,69,1.9,2.9,90,0.00,,,0.00,VWS V13.01,2013-07-13 13:11:00,
2013-07-13 08:16:00,69.5,65.8,30.15,North,11,0.9,1.7,88,0.00,,,0.00,VWS V13.01,2013-07-13 13:16:00,
2013-07-13 08:21:00,70.3,65.1,30.15,ENE,75,1.6,2.4,84,0.00,,,0.00,VWS V13.01,2013-07-13 13:21:00,
2013-07-13 08:26:00,70.8,63.7,30.15,WNW,302,0.7,3.5,78,0.00,,,0.00,VWS V13.01,2013-07-13 13:26:00,
2013-07-13 08:31:00,71.4,63.5,30.15,SE,142,0.7,2.5,76,0.00,,,0.00,VWS V13.01,2013-07-13 13:31:00,
2013-07-13 08:36:00,71.8,63.1,30.15,East,100,1.4,1.9,74,0.00,,,0.00,VWS V13.01,2013-07-13 13:36:00,
2013-07-13 08:41:00,72.5,63.0,30.15,East,83,2.3,2.8,72,0.00,,,0.00,VWS V13.01,2013-07-13 13:41:00,
2013-07-13 08:46:00,72.8,63.4,30.16,ESE,103,0.0,1.5,72,0.00,,,0.00,VWS V13.01,2013-07-13 13:46:00,
2013-07-13 08:51:00,73.0,62.7,30.15,SE,131,1.8,2.7,70,0.00,,,0.00,VWS V13.01,2013-07-13 13:51:00,
2013-07-13 08:56:00,73.3,60.4,30.15,SE,129,2.2,4.5,64,0.00,,,0.00,VWS V13.01,2013-07-13 13:56:00,
2013-07-13 09:01:00,73.6,60.6,30.16,ESE,122,1.2,3.0,64,0.00,,,0.00,VWS V13.01,2013-07-13 14:01:00,
2013-07-13 09:06:00,74.3,61.7,30.16,East,80,1.1,2.5,65,0.00,,,0.00,VWS V13.01,2013-07-13 14:06:00,
2013-07-13 09:11:00,74.0,61.2,30.16,East,101,0.0,0.0,64,0.00,,,0.00,VWS V13.01,2013-07-13 14:11:00,
2013-07-13 09:16:00,74.8,61.5,30.17,ESE,122,2.8,2.8,63,0.00,,,0.00,VWS V13.01,2013-07-13 14:16:00,
2013-07-13 09:21:00,75.0,59.9,30.16,SE,146,2.8,4.9,59,0.00,,,0.00,VWS V13.01,2013-07-13 14:21:00,
2013-07-13 09:26:00,75.3,61.8,30.16,WNW,284,3.2,4.2,63,0.00,,,0.00,VWS V13.01,2013-07-13 14:26:00,
2013-07-13 09:31:00,75.4,60.7,30.16,East,98,4.1,4.1,60,0.00,,,0.00,VWS V13.01,2013-07-13 14:31:00,
2013-07-13 09:36:00,75.4,58.9,30.16,SE,127,1.9,5.4,57,0.00,,,0.00,VWS V13.01,2013-07-13 14:36:00,
2013-07-13 09:41:00,75.8,60.1,30.16,SE,131,2.2,4.0,58,0.00,,,0.00,VWS V13.01,2013-07-13 14:41:00,
2013-07-13 09:46:00,75.7,59.7,30.16,ENE,68,5.1,5.5,58,0.00,,,0.00,VWS V13.01,2013-07-13 14:46:00,
2013-07-13 09:51:00,76.0,59.6,30.15,SE,127,4.5,6.1,57,0.00,,,0.00,VWS V13.01,2013-07-13 14:51:00,
2013-07-13 09:56:00,76.5,59.2,30.15,NE,37,3.6,5.4,55,0.00,,,0.00,VWS V13.01,2013-07-13 14:56:00,
2013-07-13 10:01:00,76.3,59.2,30.16,SE,136,1.1,6.3,55,0.00,,,0.00,VWS V13.01,2013-07-13 15:01:00,
2013-07-13 10:06:00,76.9,60.6,30.16,ESE,118,4.4,7.0,57,0.00,,,0.00,VWS V13.01,2013-07-13 15:06:00,
2013-07-13 10:11:00,76.5,57.3,30.16,SE,142,7.4,8.5,51,0.00,,,0.00,VWS V13.01,2013-07-13 15:11:00,
2013-07-13 10:16:00,77.1,55.0,30.16,East,90,3.1,5.2,46,0.00,,,0.00,VWS V13.01,2013-07-13 15:16:00,
2013-07-13 10:21:00,76.6,53.9,30.16,SE,129,2.9,4.3,45,0.00,,,0.00,VWS V13.01,2013-07-13 15:21:00,
2013-07-13 10:26:00,76.8,55.8,30.15,ESE,103,1.1,2.2,48,0.00,,,0.00,VWS V13.01,2013-07-13 15:26:00,
2013-07-13 10:31:00,76.7,55.3,30.15,SSE,155,4.3,6.8,48,0.00,,,0.00,VWS V13.01,2013-07-13 15:31:00,
2013-07-13 10:36:00,76.8,57.5,30.15,SE,125,5.5,5.5,51,0.00,,,0.00,VWS V13.01,2013-07-13 15:36:00,
2013-07-13 10:41:00,77.1,53.3,30.15,NE,56,1.2,5.1,44,0.00,,,0.00,VWS V13.01,2013-07-13 15:41:00,
2013-07-13 10:46:00,77.2,54.0,30.15,East,98,2.4,8.0,45,0.00,,,0.00,VWS V13.01,2013-07-13 15:46:00,
2013-07-13 10:51:00,77.4,54.6,30.15,ESE,122,2.4,2.4,45,0.00,,,0.00,VWS V13.01,2013-07-13 15:51:00,
2013-07-13 10:56:00,78.1,54.4,30.15,SE,124,0.9,4.6,44,0.00,,,0.00,VWS V13.01,2013-07-13 15:56:00,
2013-07-13 11:01:00,77.9,54.3,30.15,SE,143,5.0,6.8,44,0.00,,,0.00,VWS V13.01,2013-07-13 16:01:00,
2013-07-13 11:06:00,78.1,55.2,30.15,SE,142,5.0,5.0,45,0.00,,,0.00,VWS V13.01,2013-07-13 16:06:00,
2013-07-13 11:11:00,78.4,56.0,30.15,ENE,73,3.2,4.5,46,0.00,,,0.00,VWS V13.01,2013-07-13 16:11:00,
2013-07-13 11:16:00,78.8,52.8,30.15,ESE,122,3.7,4.6,40,0.00,,,0.00,VWS V13.01,2013-07-13 16:16:00,
2013-07-13 11:21:00,78.8,54.5,30.15,South,172,7.7,7.7,43,0.00,,,0.00,VWS V13.01,2013-07-13 16:21:00,
2013-07-13 11:26:00,78.9,53.0,30.14,ESE,118,4.0,6.6,41,0.00,,,0.00,VWS V13.01,2013-07-13 16:26:00,
2013-07-13 11:31:00,78.8,53.0,30.14,ESE,112,1.3,3.4,41,0.00,,,0.00,VWS V13.01,2013-07-13 16:31:00,
2013-07-13 11:36:00,78.9,54.2,30.14,SE,141,4.1,4.8,42,0.00,,,0.00,VWS V13.01,2013-07-13 16:36:00,
2013-07-13 11:41:00,78.8,54.6,30.14,NE,48,6.5,6.5,43,0.00,,,0.00,VWS V13.01,2013-07-13 16:41:00,
2013-07-13 11:46:00,79.1,54.7,30.14,SE,141,7.1,12.1,43,0.00,,,0.00,VWS V13.01,2013-07-13 16:46:00,
2013-07-13 11:51:00,79.3,55.0,30.14,West,280,6.1,7.2,43,0.00,,,0.00,VWS V13.01,2013-07-13 16:51:00,
2013-07-13 11:56:00,79.1,54.5,30.14,East,96,3.5,4.7,43,0.00,,,0.00,VWS V13.01,2013-07-13 16:56:00,
2013-07-13 12:01:00,79.3,54.2,30.14,East,84,4.1,4.5,42,0.00,,,0.00,VWS V13.01,2013-07-13 17:01:00,
2013-07-13 12:06:00,79.5,53.8,30.14,ENE,73,4.7,4.9,41,0.00,,,0.00,VWS V13.01,2013-07-13 17:06:00,
2013-07-13 12:11:00,79.1,53.1,30.14,East,84,5.8,7.6,40,0.00,,,0.00,VWS V13.01,2013-07-13 17:11:00,
2013-07-13 12:16:00,79.7,52.9,30.14,SSE,152,3.4,7.0,40,0.00,,,0.00,VWS V13.01,2013-07-13 17:16:00,
2013-07-13 12:21:00,80.4,52.3,30.14,SSE,155,3.5,7.9,38,0.00,,,0.00,VWS V13.01,2013-07-13 17:21:00,
2013-07-13 12:26:00,80.4,52.8,30.14,ENE,75,2.5,4.5,38,0.00,,,0.00,VWS V13.01,2013-07-13 17:26:00,
2013-07-13 12:31:00,80.5,51.2,30.14,East,80,5.2,5.2,36,0.00,,,0.00,VWS V13.01,2013-07-13 17:31:00,
2013-07-13 12:36:00,80.4,52.4,30.13,SSE,166,1.9,2.6,38,0.00,,,0.00,VWS V13.01,2013-07-13 17:36:00,
2013-07-13 12:41:00,80.4,52.8,30.13,ENE,62,3.9,4.5,38,0.00,,,0.00,VWS V13.01,2013-07-13 17:41:00,
2013-07-13 12:46:00,80.4,51.8,30.13,East,80,1.5,4.0,37,0.00,,,0.00,VWS V13.01,2013-07-13 17:46:00,
2013-07-13 12:51:00,80.2,50.0,30.13,SE,135,5.7,8.0,35,0.00,,,0.00,VWS V13.01,2013-07-13 17:51:00,
2013-07-13 12:56:00,80.5,51.3,30.13,SE,143,5.0,5.0,36,0.00,,,0.00,VWS V13.01,2013-07-13 17:56:00,
2013-07-13 13:01:00,80.9,51.0,30.13,ENE,70,5.0,5.6,35,0.00,,,0.00,VWS V13.01,2013-07-13 18:01:00,
2013-07-13 13:06:00,80.4,51.5,30.13,NE,39,7.6,10.4,37,0.00,,,0.00,VWS V13.01,2013-07-13 18:06:00,
2013-07-13 13:11:00,80.3,53.2,30.13,East,79,4.0,4.0,39,0.00,,,0.00,VWS V13.01,2013-07-13 18:11:00,
2013-07-13 13:16:00,80.6,51.7,30.13,SE,127,4.3,5.4,37,0.00,,,0.00,VWS V13.01,2013-07-13 18:16:00,
2013-07-13 13:21:00,81.3,53.4,30.13,NNE,13,1.0,5.0,38,0.00,,,0.00,VWS V13.01,2013-07-13 18:21:00,
2013-07-13 13:26:00,80.6,50.8,30.13,East,86,3.9,4.5,35,0.00,,,0.00,VWS V13.01,2013-07-13 18:26:00,
2013-07-13 13:31:00,81.1,49.7,30.13,East,84,2.9,6.3,34,0.00,,,0.00,VWS V13.01,2013-07-13 18:31:00,
2013-07-13 13:36:00,81.1,50.3,30.13,SE,146,3.4,5.3,34,0.00,,,0.00,VWS V13.01,2013-07-13 18:36:00,
2013-07-13 13:41:00,81.1,49.4,30.13,SE,139,7.8,10.5,33,0.00,,,0.00,VWS V13.01,2013-07-13 18:41:00,
2013-07-13 13:46:00,81.5,50.8,30.13,NW,326,1.5,5.3,34,0.00,,,0.00,VWS V13.01,2013-07-13 18:46:00,
2013-07-13 13:51:00,81.4,51.5,30.13,ESE,104,3.6,6.6,35,0.00,,,0.00,VWS V13.01,2013-07-13 18:51:00,
2013-07-13 13:56:00,81.5,50.2,30.13,ESE,118,4.6,5.0,34,0.00,,,0.00,VWS V13.01,2013-07-13 18:56:00,
2013-07-13 14:01:00,81.3,49.6,30.13,ESE,120,1.2,4.8,33,0.00,,,0.00,VWS V13.01,2013-07-13 19:01:00,
2013-07-13 14:06:00,82.1,52.2,30.13,SSE,158,6.6,7.6,36,0.00,,,0.00,VWS V13.01,2013-07-13 19:06:00,
2013-07-13 14:11:00,81.6,51.1,30.12,East,89,4.8,6.2,35,0.00,,,0.00,VWS V13.01,2013-07-13 19:11:00,
2013-07-13 14:16:00,81.6,50.3,30.12,ESE,110,4.0,4.5,34,0.00,,,0.00,VWS V13.01,2013-07-13 19:16:00,
2013-07-13 14:21:00,82.0,51.0,30.12,NE,38,6.3,10.0,34,0.00,,,0.00,VWS V13.01,2013-07-13 19:21:00,
2013-07-13 14:26:00,81.6,49.5,30.12,NE,48,9.0,9.8,33,0.00,,,0.00,VWS V13.01,2013-07-13 19:26:00,
2013-07-13 14:31:00,81.5,49.7,30.12,NE,41,5.8,5.8,33,0.00,,,0.00,VWS V13.01,2013-07-13 19:31:00,
2013-07-13 14:36:00,81.7,48.1,30.12,ESE,114,7.0,9.6,31,0.00,,,0.00,VWS V13.01,2013-07-13 19:36:00,
2013-07-13 14:41:00,82.2,47.7,30.12,SE,135,5.8,6.5,30,0.00,,,0.00,VWS V13.01,2013-07-13 19:41:00,
2013-07-13 14:46:00,82.1,49.0,30.11,ENE,72,2.2,2.4,32,0.00,,,0.00,VWS V13.01,2013-07-13 19:46:00,
2013-07-13 14:51:00,81.7,49.8,30.12,ENE,75,5.8,6.0,33,0.00,,,0.00,VWS V13.01,2013-07-13 19:51:00,
2013-07-13 14:56:00,81.8,49.2,30.12,ESE,122,3.6,5.8,32,0.00,,,0.00,VWS V13.01,2013-07-13 19:56:00,
2013-07-13 15:01:00,82.0,50.0,30.12,North,8,5.3,8.9,33,0.00,,,0.00,VWS V13.01,2013-07-13 20:01:00,
2013-07-13 15:06:00,81.8,49.7,30.12,ENE,77,2.2,3.1,33,0.00,,,0.00,VWS V13.01,2013-07-13 20:06:00,
2013-07-13 15:11:00,81.9,50.6,30.12,ENE,68,0.5,3.4,34,0.00,,,0.00,VWS V13.01,2013-07-13 20:11:00,
2013-07-13 15:16:00,81.7,52.0,30.12,NNE,24,4.1,4.7,36,0.00,,,0.00,VWS V13.01,2013-07-13 20:16:00,
2013-07-13 15:21:00,82.0,51.3,30.12,ESE,104,5.0,13.4,34,0.00,,,0.00,VWS V13.01,2013-07-13 20:21:00,
2013-07-13 15:26:00,81.7,51.0,30.11,East,94,4.2,5.7,34,0.00,,,0.00,VWS V13.01,2013-07-13 20:26:00,
2013-07-13 15:31:00,81.3,50.0,30.11,SSE,162,0.8,2.7,34,0.00,,,0.00,VWS V13.01,2013-07-13 20:31:00,
2013-07-13 15:36:00,81.3,49.4,30.11,ENE,77,2.4,4.2,33,0.00,,,0.00,VWS V13.01,2013-07-13 20:36:00,
2013-07-13 15:41:00,82.0,51.7,30.11,NNE,21,4.2,7.3,35,0.00,,,0.00,VWS V13.01,2013-07-13 20:41:00,
2013-07-13 15:46:00,82.4,51.8,30.11,ENE,58,3.2,4.2,35,0.00,,,0.00,VWS V13.01,2013-07-13 20:46:00,
2013-07-13 15:51:00,81.9,52.7,30.11,ESE,120,3.6,6.5,36,0.00,,,0.00,VWS V13.01,2013-07-13 20:51:00,
2013-07-13 15:56:00,82.4,50.8,30.11,ESE,103,4.0,6.5,34,0.00,,,0.00,VWS V13.01,2013-07-13 20:56:00,
2013-07-13 16:01:00,82.4,53.5,30.11,East,86,4.0,5.7,37,0.00,,,0.00,VWS V13.01,2013-07-13 21:01:00,
2013-07-13 16:06:00,81.9,51.4,30.11,NE,55,4.5,8.5,35,0.00,,,0.00,VWS V13.01,2013-07-13 21:06:00,
2013-07-13 16:11:00,81.4,52.7,30.11,ESE,110,3.6,6.3,37,0.00,,,0.00,VWS V13.01,2013-07-13 21:11:00,
2013-07-13 16:16:00,81.9,51.4,30.11,ENE,73,3.9,5.3,35,0.00,,,0.00,VWS V13.01,2013-07-13 21:16:00,
2013-07-13 16:21:00,82.0,51.9,30.11,East,79,4.2,4.2,35,0.00,,,0.00,VWS V13.01,2013-07-13 21:21:00,
2013-07-13 16:26:00,82.2,53.1,30.11,ESE,108,2.5,4.2,37,0.00,,,0.00,VWS V13.01,2013-07-13 21:26:00,
2013-07-13 16:31:00,81.2,52.0,30.11,ENE,63,3.7,4.2,36,0.00,,,0.00,VWS V13.01,2013-07-13 21:31:00,
2013-07-13 16:36:00,81.0,52.5,30.11,ESE,104,2.5,4.5,37,0.00,,,0.00,VWS V13.01,2013-07-13 21:36:00,
2013-07-13 16:41:00,81.3,53.1,30.11,SE,138,1.7,2.8,38,0.00,,,0.00,VWS V13.01,2013-07-13 21:41:00,
2013-07-13 16:46:00,81.8,53.5,30.11,ESE,122,1.7,5.5,38,0.00,,,0.00,VWS V13.01,2013-07-13 21:46:00,
2013-07-13 16:51:00,81.3,53.4,30.10,ENE,77,4.6,5.0,38,0.00,,,0.00,VWS V13.01,2013-07-13 21:51:00,
2013-07-13 16:56:00,80.5,52.7,30.10,ENE,73,3.7,3.7,38,0.00,,,0.00,VWS V13.01,2013-07-13 21:56:00,
2013-07-13 17:01:00,80.5,53.8,30.10,East,91,2.5,3.9,40,0.00,,,0.00,VWS V13.01,2013-07-13 22:01:00,
2013-07-13 17:06:00,80.4,53.7,30.10,NE,44,1.9,3.7,40,0.00,,,0.00,VWS V13.01,2013-07-13 22:06:00,
2013-07-13 17:11:00,80.4,53.6,30.10,East,83,6.0,6.1,40,0.00,,,0.00,VWS V13.01,2013-07-13 22:11:00,
2013-07-13 17:16:00,81.1,54.0,30.10,ENE,73,5.2,5.2,39,0.00,,,0.00,VWS V13.01,2013-07-13 22:16:00,
2013-07-13 17:21:00,81.1,53.1,30.10,ESE,121,1.2,3.5,38,0.00,,,0.00,VWS V13.01,2013-07-13 22:21:00,
2013-07-13 17:26:00,81.4,52.9,30.10,NE,39,3.0,6.2,37,0.00,,,0.00,VWS V13.01,2013-07-13 22:26:00,
2013-07-13 17:31:00,81.1,53.0,30.10,NE,51,5.5,11.4,38,0.00,,,0.00,VWS V13.01,2013-07-13 22:31:00,
2013-07-13 17:36:00,81.2,53.6,30.10,NE,44,2.2,3.7,39,0.00,,,0.00,VWS V13.01,2013-07-13 22:36:00,
2013-07-13 17:41:00,80.4,54.3,30.10,East,101,0.0,1.2,41,0.00,,,0.00,VWS V13.01,2013-07-13 22:41:00,
2013-07-13 17:46:00,80.3,53.6,30.10,NNE,32,4.2,7.9,40,0.00,,,0.00,VWS V13.01,2013-07-13 22:46:00,
2013-07-13 17:51:00,80.7,54.0,30.10,East,82,5.1,5.7,40,0.00,,,0.00,VWS V13.01,2013-07-13 22:51:00,
2013-07-13 17:56:00,80.8,53.9,30.10,ESE,118,1.7,4.2,40,0.00,,,0.00,VWS V13.01,2013-07-13 22:56:00,
2013-07-13 18:01:00,80.4,54.0,30.10,ENE,75,0.3,2.3,40,0.00,,,0.00,VWS V13.01,2013-07-13 23:01:00,
2013-07-13 18:06:00,80.6,55.4,30.10,WNW,283,2.2,3.0,42,0.00,,,0.00,VWS V13.01,2013-07-13 23:06:00,
2013-07-13 18:11:00,80.4,54.9,30.10,ENE,59,3.5,4.3,42,0.00,,,0.00,VWS V13.01,2013-07-13 23:11:00,
2013-07-13 18:16:00,80.9,55.5,30.10,NE,45,2.2,6.5,42,0.00,,,0.00,VWS V13.01,2013-07-13 23:16:00,
2013-07-13 18:21:00,80.3,54.4,30.10,NE,49,4.2,5.5,41,0.00,,,0.00,VWS V13.01,2013-07-13 23:21:00,
2013-07-13 18:26:00,80.1,54.0,30.10,ENE,76,2.9,3.8,41,0.00,,,0.00,VWS V13.01,2013-07-13 23:26:00,
2013-07-13 18:31:00,80.2,55.4,30.10,ENE,70,3.0,3.5,42,0.00,,,0.00,VWS V13.01,2013-07-13 23:31:00,
2013-07-13 18:36:00,80.0,55.7,30.09,East,91,3.2,4.5,43,0.00,,,0.00,VWS V13.01,2013-07-13 23:36:00,
2013-07-13 18:41:00,80.3,55.4,30.09,East,84,4.0,4.0,42,0.00,,,0.00,VWS V13.01,2013-07-13 23:41:00,
2013-07-13 18:46:00,79.8,54.7,30.09,North,353,4.3,6.2,42,0.00,,,0.00,VWS V13.01,2013-07-13 23:46:00,
2013-07-13 18:51:00,79.9,55.6,30.09,ENE,69,5.7,8.5,43,0.00,,,0.00,VWS V13.01,2013-07-13 23:51:00,
2013-07-13 18:56:00,80.0,56.3,30.09,NE,48,8.4,8.4,44,0.00,,,0.00,VWS V13.01,2013-07-13 23:56:00,
2013-07-13 19:01:00,79.7,57.0,30.09,ENE,76,5.2,6.3,46,0.00,,,0.00,VWS V13.01,2013-07-14 00:01:00,
2013-07-13 19:06:00,79.7,56.7,30.09,ENE,58,2.7,5.2,45,0.00,,,0.00,VWS V13.01,2013-07-14 00:06:00,
2013-07-13 19:11:00,79.2,57.2,30.09,ENE,70,3.3,4.8,47,0.00,,,0.00,VWS V13.01,2013-07-14 00:11:00,
2013-07-13 19:16:00,79.3,57.5,30.09,NE,55,8.2,8.9,47,0.00,,,0.00,VWS V13.01,2013-07-14 00:16:00,
2013-07-13 19:21:00,79.1,57.1,30.09,NE,35,5.5,7.3,47,0.00,,,0.00,VWS V13.01,2013-07-14 00:21:00,
2013-07-13 19:26:00,79.0,56.7,30.09,North,4,3.7,8.8,46,0.00,,,0.00,VWS V13.01,2013-07-14 00:26:00,
2013-07-13 19:31:00,78.8,57.1,30.10,ESE,120,3.0,5.7,47,0.00,,,0.00,VWS V13.01,2013-07-14 00:31:00,
2013-07-13 19:36:00,78.8,57.5,30.10,NE,35,3.9,4.0,48,0.00,,,0.00,VWS V13.01,2013-07-14 00:36:00,
2013-07-13 19:41:00,78.8,58.1,30.10,ENE,66,4.1,6.8,49,0.00,,,0.00,VWS V13.01,2013-07-14 00:41:00,
2013-07-13 19:46:00,78.4,58.5,30.10,ENE,63,4.0,7.6,50,0.00,,,0.00,VWS V13.01,2013-07-14 00:46:00,
2013-07-13 19:51:00,77.9,58.8,30.10,ENE,68,5.1,5.4,52,0.00,,,0.00,VWS V13.01,2013-07-14 00:51:00,
2013-07-13 19:56:00,78.0,58.4,30.10,ENE,68,4.1,5.8,51,0.00,,,0.00,VWS V13.01,2013-07-14 00:56:00,
2013-07-13 20:01:00,78.0,58.6,30.10,East,79,1.1,3.8,51,0.00,,,0.00,VWS V13.01,2013-07-14 01:01:00,
2013-07-13 20:06:00,77.5,58.2,30.10,ENE,60,2.7,5.5,51,0.00,,,0.00,VWS V13.01,2013-07-14 01:06:00,
2013-07-13 20:11:00,77.1,58.5,30.10,ENE,58,3.3,4.8,53,0.00,,,0.00,VWS V13.01,2013-07-14 01:11:00,
2013-07-13 20:16:00,76.7,58.7,30.10,NE,49,3.4,5.1,54,0.00,,,0.00,VWS V13.01,2013-07-14 01:16:00,
2013-07-13 20:21:00,76.4,59.0,30.10,NE,51,5.1,6.2,55,0.00,,,0.00,VWS V13.01,2013-07-14 01:21:00,
2013-07-13 20:26:00,76.7,59.4,30.10,NE,38,2.5,3.1,55,0.00,,,0.00,VWS V13.01,2013-07-14 01:26:00,
2013-07-13 20:31:00,76.0,59.4,30.10,NE,51,2.9,4.4,56,0.00,,,0.00,VWS V13.01,2013-07-14 01:31:00,
2013-07-13 20:36:00,75.7,59.5,30.11,NE,52,1.9,1.9,57,0.00,,,0.00,VWS V13.01,2013-07-14 01:36:00,
2013-07-13 20:41:00,75.1,59.6,30.11,NE,45,3.7,3.7,59,0.00,,,0.00,VWS V13.01,2013-07-14 01:41:00,
2013-07-13 20:46:00,74.9,59.7,30.11,NE,38,1.3,2.4,59,0.00,,,0.00,VWS V13.01,2013-07-14 01:46:00,
2013-07-13 20:51:00,75.2,60.4,30.11,NE,34,0.0,0.4,60,0.00,,,0.00,VWS V13.01,2013-07-14 01:51:00,
2013-07-13 20:56:00,74.8,60.5,30.11,NE,52,0.9,1.3,61,0.00,,,0.00,VWS V13.01,2013-07-14 01:56:00,
2013-07-13 21:01:00,74.2,60.4,30.11,NE,46,2.7,2.8,62,0.00,,,0.00,VWS V13.01,2013-07-14 02:01:00,
2013-07-13 21:06:00,74.7,61.7,30.11,NE,45,2.8,3.2,64,0.00,,,0.00,VWS V13.01,2013-07-14 02:06:00,
2013-07-13 21:11:00,74.2,61.8,30.12,ENE,63,3.8,4.8,65,0.00,,,0.00,VWS V13.01,2013-07-14 02:11:00,
2013-07-13 21:16:00,74.0,61.8,30.12,NE,55,6.0,6.0,66,0.00,,,0.00,VWS V13.01,2013-07-14 02:16:00,
2013-07-13 21:21:00,73.8,61.2,30.12,NE,49,4.6,5.2,65,0.00,,,0.00,VWS V13.01,2013-07-14 02:21:00,
2013-07-13 21:26:00,73.9,61.3,30.12,NE,48,3.6,4.1,65,0.00,,,0.00,VWS V13.01,2013-07-14 02:26:00,
2013-07-13 21:31:00,73.6,61.2,30.12,ENE,59,5.4,5.5,65,0.00,,,0.00,VWS V13.01,2013-07-14 02:31:00,
2013-07-13 21:36:00,73.4,61.2,30.12,NE,55,6.3,6.3,66,0.00,,,0.00,VWS V13.01,2013-07-14 02:36:00,
2013-07-13 21:41:00,73.7,61.6,30.13,NE,42,5.0,5.2,66,0.00,,,0.00,VWS V13.01,2013-07-14 02:41:00,
2013-07-13 21:46:00,73.5,61.5,30.13,NE,46,5.3,7.1,66,0.00,,,0.00,VWS V13.01,2013-07-14 02:46:00,
2013-07-13 21:51:00,73.5,61.7,30.13,ENE,63,6.3,6.5,67,0.00,,,0.00,VWS V13.01,2013-07-14 02:51:00,
2013-07-13 21:56:00,73.2,61.7,30.12,ENE,68,3.8,5.2,67,0.00,,,0.00,VWS V13.01,2013-07-14 02:56:00,
2013-07-13 22:01:00,73.0,61.9,30.13,NE,41,4.3,4.9,68,0.00,,,0.00,VWS V13.01,2013-07-14 03:01:00,
2013-07-13 22:06:00,73.2,62.8,30.13,ENE,60,3.9,5.4,70,0.00,,,0.00,VWS V13.01,2013-07-14 03:06:00,
2013-07-13 22:11:00,72.6,63.5,30.13,NE,46,5.0,6.0,73,0.00,,,0.00,VWS V13.01,2013-07-14 03:11:00,
2013-07-13 22:15:00,72.1,63.9,30.13,NE,34,3.2,3.8,75,0.00,,,0.00,VWS V13.01,2013-07-14 03:15:00,
2013-07-13 22:21:00,72.1,64.8,30.13,ENE,65,2.9,3.7,78,0.00,,,0.00,VWS V13.01,2013-07-14 03:21:00,
2013-07-13 22:26:00,71.4,64.9,30.13,NE,51,3.4,4.3,80,0.00,,,0.00,VWS V13.01,2013-07-14 03:26:00,
2013-07-13 22:31:00,71.1,65.3,30.13,ENE,62,3.2,4.2,82,0.00,,,0.00,VWS V13.01,2013-07-14 03:31:00,
2013-07-13 22:35:00,70.7,65.3,30.13,ENE,70,2.7,5.6,83,0.00,,,0.00,VWS V13.01,2013-07-14 03:35:00,
2013-07-13 22:40:00,71.0,66.0,30.13,NE,53,5.5,5.5,84,0.00,,,0.00,VWS V13.01,2013-07-14 03:40:00,
2013-07-13 22:45:00,71.1,65.8,30.13,NE,46,5.0,5.9,83,0.00,,,0.00,VWS V13.01,2013-07-14 03:45:00,
2013-07-13 22:50:00,71.3,65.8,30.13,NE,48,5.4,6.3,83,0.00,,,0.00,VWS V13.01,2013-07-14 03:50:00,
2013-07-13 22:55:00,71.3,65.8,30.13,NE,45,7.3,7.8,83,0.00,,,0.00,VWS V13.01,2013-07-14 03:55:00,
2013-07-13 23:00:00,71.4,66.0,30.13,NNE,32,6.8,7.2,83,0.00,,,0.00,VWS V13.01,2013-07-14 04:00:00,
2013-07-13 23:01:00,71.5,66.1,30.13,NE,44,5.7,7.2,83,0.00,,,0.00,VWS V13.01,2013-07-14 04:01:00,
2013-07-13 23:06:00,71.2,66.0,30.13,NE,49,4.5,5.9,84,0.00,,,0.00,VWS V13.01,2013-07-14 04:06:00,
2013-07-13 23:11:00,71.1,66.0,30.13,NE,52,5.8,6.5,84,0.00,,,0.00,VWS V13.01,2013-07-14 04:11:00,
2013-07-13 23:16:00,71.4,66.3,30.13,NE,49,6.0,6.3,84,0.00,,,0.00,VWS V13.01,2013-07-14 04:16:00,
2013-07-13 23:21:00,71.5,66.5,30.13,NE,52,4.3,5.7,84,0.00,,,0.00,VWS V13.01,2013-07-14 04:21:00,
2013-07-13 23:26:00,70.9,65.9,30.13,ENE,65,3.2,4.4,84,0.00,,,0.00,VWS V13.01,2013-07-14 04:26:00,
2013-07-13 23:31:00,70.8,65.9,30.13,NE,49,5.4,5.4,84,0.00,,,0.00,VWS V13.01,2013-07-14 04:31:00,
2013-07-13 23:36:00,70.8,66.0,30.13,NE,51,4.8,6.3,85,0.00,,,0.00,VWS V13.01,2013-07-14 04:36:00,
2013-07-13 23:41:00,70.9,66.2,30.13,NE,44,5.2,5.4,85,0.00,,,0.00,VWS V13.01,2013-07-14 04:41:00,
2013-07-13 23:46:00,70.9,66.2,30.13,ENE,59,4.3,5.6,85,0.00,,,0.00,VWS V13.01,2013-07-14 04:46:00,
2013-07-13 23:51:00,70.6,66.3,30.13,NE,34,7.0,7.5,86,0.00,,,0.00,VWS V13.01,2013-07-14 04:51:00,
2013-07-13 23:56:00,70.2,66.1,30.13,ENE,60,7.6,8.0,87,0.00,,,0.00,VWS V13.01,2013-07-14 04:56:00,